Time;durP1;ratioP1;P1;durP2;ratioP2;P2;SDS_P1;SDS_P2;PMS_P1;PMS_P2;Temp;Humidity;BMP_temperature;BMP_pressure;BME280_temperature;BME280_humidity;BME280_pressure;Samples;Min_cycle;Max_cycle;Signal;HPM_P1;HPM_P2
2022/09/22 00:00:57;;;;;;;;;;;;;;;;;;2132356;27;19927;-47
2022/09/22 00:01:58;;;;;;;;;;;;;;;;;;2132107;27;19930;-46
2022/09/22 00:02:59;;;;;;;;;;;;;;;;;;2132283;27;19930;-45
2022/09/22 00:04:02;;;;;;;;;;;;;;;;;;2132241;27;19950;-47
2022/09/22 00:05:03;;;;;;;;;;;;;;;;;;2132215;27;19946;-46
2022/09/22 00:06:04;;;;;;;;;;;;;;;;;;2132363;27;19967;-46
2022/09/22 00:07:04;;;;;;;;;;;;;;;;;;2132014;27;19979;-45
2022/09/22 00:08:05;;;;;;;;;;;;;;;;;;2132111;27;20005;-46
2022/09/22 00:09:06;;;;;;;;;;;;;;;;;;2132212;27;20165;-46
2022/09/22 00:10:07;;;;;;;;;;;;;;;;;;2132053;27;19930;-45
2022/09/22 00:11:08;;;;;;;;;;;;;;;;;;2131932;27;19927;-46
2022/09/22 00:12:09;;;;;;;;;;;;;;;;;;2132074;27;19927;-45
2022/09/22 00:13:09;;;;;;;;;;;;;;;;;;2131956;27;19923;-47
2022/09/22 00:14:10;;;;;;;;;;;;;;;;;;2132161;27;20264;-46
2022/09/22 00:15:11;;;;;;;;;;;;;;;;;;2132305;27;19992;-42
2022/09/22 00:16:12;;;;;;;;;;;;;;;;;;2132048;27;20046;-42
2022/09/22 00:17:13;;;;;;;;;;;;;;;;;;2132018;27;20329;-42
2022/09/22 00:18:14;;;;;;;;;;;;;;;;;;2132040;27;19969;-42
2022/09/22 00:19:14;;;;;;;;;;;;;;;;;;2132332;27;20413;-42
2022/09/22 00:20:16;;;;;;;;;;;;;;;;;;2132037;27;19946;-42
2022/09/22 00:21:17;;;;;;;;;;;;;;;;;;2132079;27;20410;-42
2022/09/22 00:22:18;;;;;;;;;;;;;;;;;;2132111;27;19923;-42
2022/09/22 00:23:18;;;;;;;;;;;;;;;;;;2132182;27;19923;-42
2022/09/22 00:24:21;;;;;;;;;;;;;;;;;;2131978;27;20169;-42
2022/09/22 00:25:22;;;;;;;;;;;;;;;;;;2132084;27;20386;-42
2022/09/22 00:26:23;;;;;;;;;;;;;;;;;;2132093;27;19930;-42
2022/09/22 00:27:24;;;;;;;;;;;;;;;;;;2132012;27;20380;-42
2022/09/22 00:28:25;;;;;;;;;;;;;;;;;;2132112;27;19923;-41
2022/09/22 00:29:26;;;;;;;;;;;;;;;;;;2131978;27;19924;-42
2022/09/22 00:30:27;;;;;;;;;;;;;;;;;;2132069;27;20356;-42
2022/09/22 00:31:27;;;;;;;;;;;;;;;;;;2131972;27;19923;-42
2022/09/22 00:32:28;;;;;;;;;;;;;;;;;;2132159;27;19966;-42
2022/09/22 00:33:29;;;;;;;;;;;;;;;;;;2131922;27;19974;-42
2022/09/22 00:34:30;;;;;;;;;;;;;;;;;;2131956;27;19985;-42
2022/09/22 00:35:30;;;;;;;;;;;;;;;;;;2131993;27;19934;-41
2022/09/22 00:36:31;;;;;;;;;;;;;;;;;;2131854;27;20022;-42
2022/09/22 00:37:32;;;;;;;;;;;;;;;;;;2131907;27;19923;-42
2022/09/22 00:38:33;;;;;;;;;;;;;;;;;;2131947;27;19923;-42
2022/09/22 00:39:34;;;;;;;;;;;;;;;;;;2132044;27;19930;-42
2022/09/22 00:40:36;;;;;;;;;;;;;;;;;;2131988;27;19923;-41
2022/09/22 00:41:37;;;;;;;;;;;;;;;;;;2132214;27;20001;-42
2022/09/22 00:42:37;;;;;;;;;;;;;;;;;;2131957;27;20380;-42
2022/09/22 00:43:38;;;;;;;;;;;;;;;;;;2132241;27;19923;-42
2022/09/22 00:44:39;;;;;;;;;;;;;;;;;;2131923;27;20288;-42
2022/09/22 00:45:40;;;;;;;;;;;;;;;;;;2132106;27;20025;-46
2022/09/22 00:46:41;;;;;;;;;;;;;;;;;;2132051;27;19966;-47
2022/09/22 00:47:41;;;;;;;;;;;;;;;;;;2131924;27;19923;-45
2022/09/22 00:48:44;;;;;;;;;;;;;;;;;;2131857;27;19966;-46
2022/09/22 00:49:44;;;;;;;;;;;;;;;;;;2131815;27;19923;-46
2022/09/22 00:50:45;;;;;;;;;;;;;;;;;;2131991;27;20022;-45
2022/09/22 00:51:46;;;;;;;;;;;;;;;;;;2131741;27;19952;-45
2022/09/22 00:52:47;;;;;;;;;;;;;;;;;;2131982;27;19923;-45
2022/09/22 00:53:48;;;;;;;;;;;;;;;;;;2131838;27;20014;-47
2022/09/22 00:54:48;;;;;;;;;;;;;;;;;;2131265;27;19923;-46
2022/09/22 00:55:49;;;;;;;;;;;;;;;;;;2131948;27;19930;-47
2022/09/22 00:56:50;;;;;;;;;;;;;;;;;;2131917;27;20292;-46
2022/09/22 00:57:51;;;;;;;;;;;;;;;;;;2131970;27;19923;-46
2022/09/22 00:58:52;;;;;;;;;;;;;;;;;;2131819;27;20501;-46
2022/09/22 00:59:52;;;;;;;;;;;;;;;;;;2131920;27;19923;-45
2022/09/22 01:00:53;;;;;;;;;;;;;;;;;;2131851;27;19930;-46
2022/09/22 01:01:54;;;;;;;;;;;;;;;;;;2132146;27;19923;-46
2022/09/22 01:02:55;;;;;;;;;;;;;;;;;;2131708;27;19927;-46
2022/09/22 01:03:56;;;;;;;;;;;;;;;;;;2131817;27;19923;-46
2022/09/22 01:04:57;;;;;;;;;;;;;;;;;;2131913;27;19966;-46
2022/09/22 01:05:58;;;;;;;;;;;;;;;;;;2131952;27;20021;-45
2022/09/22 01:06:59;;;;;;;;;;;;;;;;;;2131722;27;20022;-46
2022/09/22 01:07:59;;;;;;;;;;;;;;;;;;2128149;27;19924;-46
2022/09/22 01:09:00;;;;;;;;;;;;;;;;;;2124190;27;19927;-46
2022/09/22 01:10:01;;;;;;;;;;;;;;;;;;2131603;27;19923;-46
2022/09/22 01:11:02;;;;;;;;;;;;;;;;;;2131691;27;20364;-45
2022/09/22 01:12:03;;;;;;;;;;;;;;;;;;2123073;27;19928;-45
2022/09/22 01:13:04;;;;;;;;;;;;;;;;;;2123316;28;19928;-45
2022/09/22 01:14:04;;;;;;;;;;;;;;;;;;2123514;28;19924;-42
2022/09/22 01:15:05;;;;;;;;;;;;;;;;;;2123203;28;19923;-42
2022/09/22 01:16:06;;;;;;;;;;;;;;;;;;2123256;28;19971;-42
2022/09/22 01:17:07;;;;;;;;;;;;;;;;;;2123677;27;19955;-45
2022/09/22 01:18:08;;;;;;;;;;;;;;;;;;2123138;28;19924;-46
2022/09/22 01:19:09;;;;;;;;;;;;;;;;;;2123376;28;19930;-45
2022/09/22 01:20:11;;;;;;;;;;;;;;;;;;2123371;28;20422;-45
2022/09/22 01:21:12;;;;;;;;;;;;;;;;;;2123182;28;19923;-45
2022/09/22 01:22:12;;;;;;;;;;;;;;;;;;2123169;27;19972;-48
2022/09/22 01:23:14;;;;;;;;;;;;;;;;;;2123138;28;19927;-46
2022/09/22 01:24:14;;;;;;;;;;;;;;;;;;2123270;28;19930;-47
2022/09/22 01:25:15;;;;;;;;;;;;;;;;;;2123098;28;19950;-46
2022/09/22 01:26:16;;;;;;;;;;;;;;;;;;2123178;28;19960;-45
2022/09/22 01:27:17;;;;;;;;;;;;;;;;;;2123298;28;20018;-46
2022/09/22 01:28:17;;;;;;;;;;;;;;;;;;2123063;28;19961;-45
2022/09/22 01:29:18;;;;;;;;;;;;;;;;;;2123097;28;19971;-46
2022/09/22 01:30:19;;;;;;;;;;;;;;;;;;2123007;28;19975;-46
2022/09/22 01:31:20;;;;;;;;;;;;;;;;;;2123127;27;19927;-45
2022/09/22 01:32:21;;;;;;;;;;;;;;;;;;2123092;28;19927;-46
2022/09/22 01:33:22;;;;;;;;;;;;;;;;;;2123123;28;20008;-45
2022/09/22 01:34:22;;;;;;;;;;;;;;;;;;2123076;28;19931;-46
2022/09/22 01:35:23;;;;;;;;;;;;;;;;;;2123240;28;20395;-45
2022/09/22 01:36:24;;;;;;;;;;;;;;;;;;2123289;27;19939;-42
2022/09/22 01:37:25;;;;;;;;;;;;;;;;;;2123057;28;19923;-42
2022/09/22 01:38:26;;;;;;;;;;;;;;;;;;2123280;28;19971;-46
2022/09/22 01:39:27;;;;;;;;;;;;;;;;;;2123024;28;19923;-46
2022/09/22 01:40:28;;;;;;;;;;;;;;;;;;2123193;28;19924;-47
2022/09/22 01:41:31;;;;;;;;;;;;;;;;;;2123181;27;19924;-46
2022/09/22 01:42:32;;;;;;;;;;;;;;;;;;2123013;28;20283;-46
2022/09/22 01:43:33;;;;;;;;;;;;;;;;;;2123013;28;19980;-46
2022/09/22 01:44:34;;;;;;;;;;;;;;;;;;2123046;28;20072;-47
2022/09/22 01:45:35;;;;;;;;;;;;;;;;;;2123066;28;19923;-45
2022/09/22 01:46:36;;;;;;;;;;;;;;;;;;2122973;27;20300;-46
2022/09/22 01:47:39;;;;;;;;;;;;;;;;;;2123109;28;19975;-46
2022/09/22 01:48:40;;;;;;;;;;;;;;;;;;2123002;28;19946;-47
2022/09/22 01:49:41;;;;;;;;;;;;;;;;;;2123159;28;19970;-46
2022/09/22 01:50:42;;;;;;;;;;;;;;;;;;2123216;28;20436;-42
2022/09/22 01:51:42;;;;;;;;;;;;;;;;;;2122893;27;19931;-42
2022/09/22 01:52:43;;;;;;;;;;;;;;;;;;2122970;28;19971;-41
2022/09/22 01:53:44;;;;;;;;;;;;;;;;;;2122991;28;19923;-42
2022/09/22 01:54:45;;;;;;;;;;;;;;;;;;2122957;28;19923;-42
2022/09/22 01:55:46;;;;;;;;;;;;;;;;;;2123134;28;19923;-42
2022/09/22 01:56:47;;;;;;;;;;;;;;;;;;2122912;27;19923;-42
2022/09/22 01:57:47;;;;;;;;;;;;;;;;;;2123068;28;19974;-42
2022/09/22 01:58:48;;;;;;;;;;;;;;;;;;2123123;28;19980;-42
2022/09/22 01:59:49;;;;;;;;;;;;;;;;;;2123059;28;19983;-42
2022/09/22 02:00:50;;;;;;;;;;;;;;;;;;2122944;28;20425;-42
2022/09/22 02:01:51;;;;;;;;;;;;;;;;;;2122906;27;19923;-42
2022/09/22 02:02:52;;;;;;;;;;;;;;;;;;2123068;28;19938;-42
2022/09/22 02:03:53;;;;;;;;;;;;;;;;;;2122809;27;19939;-42
2022/09/22 02:04:54;;;;;;;;;;;;;;;;;;2123047;28;19946;-42
2022/09/22 02:05:55;;;;;;;;;;;;;;;;;;2129552;27;19924;-42
2022/09/22 02:06:56;;;;;;;;;;;;;;;;;;2132922;27;19979;-42
2022/09/22 02:07:56;;;;;;;;;;;;;;;;;;2133041;27;20371;-42
2022/09/22 02:08:57;;;;;;;;;;;;;;;;;;2133078;27;20284;-42
2022/09/22 02:09:58;;;;;;;;;;;;;;;;;;2132871;27;19923;-42
2022/09/22 02:10:59;;;;;;;;;;;;;;;;;;2133131;27;20010;-42
2022/09/22 02:11:59;;;;;;;;;;;;;;;;;;2124544;27;20351;-42
2022/09/22 02:13:00;;;;;;;;;;;;;;;;;;2124290;28;19974;-42
2022/09/22 02:14:01;;;;;;;;;;;;;;;;;;2124482;28;19924;-42
2022/09/22 02:15:02;;;;;;;;;;;;;;;;;;2124254;28;19932;-42
2022/09/22 02:16:03;;;;;;;;;;;;;;;;;;2124335;28;20018;-42
2022/09/22 02:17:04;;;;;;;;;;;;;;;;;;2124180;27;19924;-42
2022/09/22 02:18:04;;;;;;;;;;;;;;;;;;2124562;28;19931;-42
2022/09/22 02:19:05;;;;;;;;;;;;;;;;;;2124256;28;19923;-42
2022/09/22 02:20:13;;;;;;;;;;;;;;;;;;2124658;28;19927;-46
2022/09/22 02:21:14;;;;;;;;;;;;;;;;;;2124301;28;19968;-45
2022/09/22 02:22:15;;;;;;;;;;;;;;;;;;2124210;27;19929;-45
2022/09/22 02:23:16;;;;;;;;;;;;;;;;;;2124394;28;19946;-46
2022/09/22 02:24:17;;;;;;;;;;;;;;;;;;2124284;28;19923;-47
2022/09/22 02:25:17;;;;;;;;;;;;;;;;;;2124643;28;20340;-45
2022/09/22 02:26:22;;;;;;;;;;;;;;;;;;2124134;27;19967;-46
2022/09/22 02:27:25;;;;;;;;;;;;;;;;;;2124351;28;19924;-46
2022/09/22 02:28:26;;;;;;;;;;;;;;;;;;2124286;28;19923;-48
2022/09/22 02:29:27;;;;;;;;;;;;;;;;;;2124591;28;20393;-43
2022/09/22 02:30:27;;;;;;;;;;;;;;;;;;2124140;28;19924;-42
2022/09/22 02:31:29;;;;;;;;;;;;;;;;;;2124149;27;20063;-42
2022/09/22 02:32:30;;;;;;;;;;;;;;;;;;2124327;28;20022;-41
2022/09/22 02:33:31;;;;;;;;;;;;;;;;;;2124200;28;20345;-42
2022/09/22 02:34:36;;;;;;;;;;;;;;;;;;2124252;28;19966;-42
2022/09/22 02:35:37;;;;;;;;;;;;;;;;;;2124203;28;20398;-42
2022/09/22 02:36:38;;;;;;;;;;;;;;;;;;2124122;27;19991;-42
2022/09/22 02:37:39;;;;;;;;;;;;;;;;;;2124139;28;19976;-42
2022/09/22 02:38:39;;;;;;;;;;;;;;;;;;2124422;28;19924;-42
2022/09/22 02:39:40;;;;;;;;;;;;;;;;;;2124215;28;20407;-42
2022/09/22 02:40:42;;;;;;;;;;;;;;;;;;2124325;28;19923;-42
2022/09/22 02:41:43;;;;;;;;;;;;;;;;;;2124190;27;20002;-42
2022/09/22 02:42:44;;;;;;;;;;;;;;;;;;2124098;28;20340;-42
2022/09/22 02:43:45;;;;;;;;;;;;;;;;;;2124162;28;19930;-42
2022/09/22 02:44:45;;;;;;;;;;;;;;;;;;2124063;28;19931;-42
2022/09/22 02:45:46;;;;;;;;;;;;;;;;;;2124137;28;19924;-42
2022/09/22 02:46:47;;;;;;;;;;;;;;;;;;2124055;27;19931;-42
2022/09/22 02:47:48;;;;;;;;;;;;;;;;;;2124272;28;19923;-42
2022/09/22 02:48:49;;;;;;;;;;;;;;;;;;2124090;28;19923;-42
2022/09/22 02:49:50;;;;;;;;;;;;;;;;;;2124193;28;19966;-42
2022/09/22 02:50:51;;;;;;;;;;;;;;;;;;2124027;28;20030;-42
2022/09/22 02:51:51;;;;;;;;;;;;;;;;;;2124125;27;19923;-42
2022/09/22 02:52:52;;;;;;;;;;;;;;;;;;2124161;28;20369;-42
2022/09/22 02:53:53;;;;;;;;;;;;;;;;;;2124103;28;20018;-42
2022/09/22 02:54:54;;;;;;;;;;;;;;;;;;2124072;28;19924;-42
2022/09/22 02:55:56;;;;;;;;;;;;;;;;;;2124037;28;19924;-42
2022/09/22 02:56:57;;;;;;;;;;;;;;;;;;2124144;27;19923;-42
2022/09/22 02:57:57;;;;;;;;;;;;;;;;;;2124077;28;20399;-42
2022/09/22 02:58:58;;;;;;;;;;;;;;;;;;2124070;28;20134;-42
2022/09/22 02:59:59;;;;;;;;;;;;;;;;;;2123985;28;19924;-42
2022/09/22 03:01:00;;;;;;;;;;;;;;;;;;2123941;27;19923;-42
2022/09/22 03:02:00;;;;;;;;;;;;;;;;;;2129195;27;19979;-42
2022/09/22 03:03:01;;;;;;;;;;;;;;;;;;2132674;27;19929;-42
2022/09/22 03:04:02;;;;;;;;;;;;;;;;;;2132573;27;19923;-42
2022/09/22 03:05:03;;;;;;;;;;;;;;;;;;2132537;27;19923;-42
2022/09/22 03:06:04;;;;;;;;;;;;;;;;;;2132953;27;19923;-46
2022/09/22 03:07:06;;;;;;;;;;;;;;;;;;2132645;27;19924;-42
2022/09/22 03:08:06;;;;;;;;;;;;;;;;;;2132722;27;19923;-42
2022/09/22 03:09:07;;;;;;;;;;;;;;;;;;2132512;27;20439;-42
2022/09/22 03:10:08;;;;;;;;;;;;;;;;;;2132501;27;20010;-42
2022/09/22 03:11:09;;;;;;;;;;;;;;;;;;2131450;27;20290;-42
2022/09/22 03:12:10;;;;;;;;;;;;;;;;;;2124194;27;19923;-47
2022/09/22 03:13:10;;;;;;;;;;;;;;;;;;2123873;28;19927;-46
2022/09/22 03:14:18;;;;;;;;;;;;;;;;;;2124097;28;20078;-47
2022/09/22 03:15:19;;;;;;;;;;;;;;;;;;2123979;28;19961;-45
2022/09/22 03:16:24;;;;;;;;;;;;;;;;;;2123852;27;19947;-46
2022/09/22 03:17:24;;;;;;;;;;;;;;;;;;2124265;27;19970;-46
2022/09/22 03:18:25;;;;;;;;;;;;;;;;;;2123106;28;20064;-46
2022/09/22 03:19:26;;;;;;;;;;;;;;;;;;2123914;28;19962;-46
2022/09/22 03:20:27;;;;;;;;;;;;;;;;;;2124151;28;19980;-42
2022/09/22 03:21:28;;;;;;;;;;;;;;;;;;2123969;27;19976;-42
2022/09/22 03:22:29;;;;;;;;;;;;;;;;;;2123892;28;20023;-42
2022/09/22 03:23:30;;;;;;;;;;;;;;;;;;2123943;28;19930;-42
2022/09/22 03:24:31;;;;;;;;;;;;;;;;;;2123850;28;20399;-42
2022/09/22 03:25:31;;;;;;;;;;;;;;;;;;2124020;28;19954;-42
2022/09/22 03:26:33;;;;;;;;;;;;;;;;;;2123986;27;19924;-42
2022/09/22 03:27:34;;;;;;;;;;;;;;;;;;2123821;28;19923;-42
2022/09/22 03:28:35;;;;;;;;;;;;;;;;;;2123961;28;19923;-42
2022/09/22 03:29:36;;;;;;;;;;;;;;;;;;2123830;28;19924;-42
2022/09/22 03:30:39;;;;;;;;;;;;;;;;;;2123913;28;19924;-42
2022/09/22 03:31:40;;;;;;;;;;;;;;;;;;2123705;27;20466;-42
2022/09/22 03:32:40;;;;;;;;;;;;;;;;;;2123898;28;19927;-42
2022/09/22 03:33:41;;;;;;;;;;;;;;;;;;2123895;28;19924;-42
2022/09/22 03:34:42;;;;;;;;;;;;;;;;;;2123873;28;19923;-42
2022/09/22 03:35:43;;;;;;;;;;;;;;;;;;2123800;28;19924;-42
2022/09/22 03:36:44;;;;;;;;;;;;;;;;;;2123815;27;19924;-42
2022/09/22 03:37:44;;;;;;;;;;;;;;;;;;2123763;28;19973;-42
2022/09/22 03:38:45;;;;;;;;;;;;;;;;;;2123788;28;19924;-42
2022/09/22 03:39:46;;;;;;;;;;;;;;;;;;2124130;28;19982;-42
2022/09/22 03:40:47;;;;;;;;;;;;;;;;;;2123792;28;19923;-42
2022/09/22 03:41:49;;;;;;;;;;;;;;;;;;2123867;27;19928;-42
2022/09/22 03:42:50;;;;;;;;;;;;;;;;;;2123740;28;20333;-42
2022/09/22 03:43:51;;;;;;;;;;;;;;;;;;2123759;28;19927;-42
2022/09/22 03:44:51;;;;;;;;;;;;;;;;;;2123732;28;19927;-42
2022/09/22 03:45:52;;;;;;;;;;;;;;;;;;2123898;28;20153;-42
2022/09/22 03:46:53;;;;;;;;;;;;;;;;;;2123721;27;20365;-42
2022/09/22 03:47:54;;;;;;;;;;;;;;;;;;2123752;28;19974;-42
2022/09/22 03:48:55;;;;;;;;;;;;;;;;;;2123837;28;19924;-42
2022/09/22 03:49:56;;;;;;;;;;;;;;;;;;2123708;28;19928;-42
2022/09/22 03:50:57;;;;;;;;;;;;;;;;;;2123782;28;20374;-42
2022/09/22 03:51:58;;;;;;;;;;;;;;;;;;2123655;27;19931;-42
2022/09/22 03:52:58;;;;;;;;;;;;;;;;;;2123652;28;19928;-42
2022/09/22 03:53:59;;;;;;;;;;;;;;;;;;2123954;28;19931;-46
2022/09/22 03:55:01;;;;;;;;;;;;;;;;;;2123821;28;19923;-46
2022/09/22 03:56:03;;;;;;;;;;;;;;;;;;2123706;28;19923;-47
2022/09/22 03:57:04;;;;;;;;;;;;;;;;;;2123726;27;19924;-46
2022/09/22 03:58:05;;;;;;;;;;;;;;;;;;2127665;27;20013;-42
2022/09/22 03:59:05;;;;;;;;;;;;;;;;;;2132396;27;20368;-42
2022/09/22 04:00:06;;;;;;;;;;;;;;;;;;2132364;27;19975;-42
2022/09/22 04:01:08;;;;;;;;;;;;;;;;;;2132149;27;20415;-42
2022/09/22 04:02:09;;;;;;;;;;;;;;;;;;2132229;27;20025;-42
2022/09/22 04:03:11;;;;;;;;;;;;;;;;;;2132207;27;19958;-42
2022/09/22 04:04:12;;;;;;;;;;;;;;;;;;2132299;27;19966;-42
2022/09/22 04:05:12;;;;;;;;;;;;;;;;;;2132289;27;20295;-42
2022/09/22 04:06:13;;;;;;;;;;;;;;;;;;2132274;27;20371;-42
2022/09/22 04:07:14;;;;;;;;;;;;;;;;;;2132175;27;19946;-42
2022/09/22 04:08:15;;;;;;;;;;;;;;;;;;2132280;27;20249;-42
2022/09/22 04:09:17;;;;;;;;;;;;;;;;;;2132387;27;19923;-46
2022/09/22 04:10:18;;;;;;;;;;;;;;;;;;2132079;27;19930;-46
2022/09/22 04:11:19;;;;;;;;;;;;;;;;;;2129451;27;19923;-46
2022/09/22 04:12:20;;;;;;;;;;;;;;;;;;2123723;28;20010;-46
2022/09/22 04:13:21;;;;;;;;;;;;;;;;;;2123658;28;19934;-45
2022/09/22 04:14:22;;;;;;;;;;;;;;;;;;2123524;28;19923;-46
2022/09/22 04:15:22;;;;;;;;;;;;;;;;;;2123530;28;19923;-45
2022/09/22 04:16:23;;;;;;;;;;;;;;;;;;2123421;27;19951;-46
2022/09/22 04:17:24;;;;;;;;;;;;;;;;;;2123680;28;19923;-45
2022/09/22 04:18:25;;;;;;;;;;;;;;;;;;2123675;28;20364;-45
2022/09/22 04:19:26;;;;;;;;;;;;;;;;;;2123502;28;20447;-47
2022/09/22 04:20:27;;;;;;;;;;;;;;;;;;2123726;28;19923;-42
2022/09/22 04:21:28;;;;;;;;;;;;;;;;;;2123399;27;19930;-42
2022/09/22 04:22:29;;;;;;;;;;;;;;;;;;2123538;28;20214;-42
2022/09/22 04:23:29;;;;;;;;;;;;;;;;;;2123453;28;20319;-42
2022/09/22 04:24:30;;;;;;;;;;;;;;;;;;2123586;28;20427;-42
2022/09/22 04:25:31;;;;;;;;;;;;;;;;;;2123530;28;19924;-42
2022/09/22 04:26:32;;;;;;;;;;;;;;;;;;2123609;27;20321;-46
2022/09/22 04:27:33;;;;;;;;;;;;;;;;;;2123602;28;19923;-47
2022/09/22 04:28:34;;;;;;;;;;;;;;;;;;2123631;28;19954;-45
2022/09/22 04:29:34;;;;;;;;;;;;;;;;;;2123455;27;20284;-46
2022/09/22 04:30:36;;;;;;;;;;;;;;;;;;2123538;28;19923;-42
2022/09/22 04:31:37;;;;;;;;;;;;;;;;;;2123317;27;19927;-43
2022/09/22 04:32:38;;;;;;;;;;;;;;;;;;2123414;28;19930;-42
2022/09/22 04:33:38;;;;;;;;;;;;;;;;;;2123411;28;19975;-42
2022/09/22 04:34:39;;;;;;;;;;;;;;;;;;2123416;28;19931;-42
2022/09/22 04:35:40;;;;;;;;;;;;;;;;;;2124093;28;19923;-46
2022/09/22 04:36:41;;;;;;;;;;;;;;;;;;2123359;27;19932;-46
2022/09/22 04:37:42;;;;;;;;;;;;;;;;;;2123677;28;19976;-46
2022/09/22 04:38:43;;;;;;;;;;;;;;;;;;2123929;27;19982;-42
2022/09/22 04:39:44;;;;;;;;;;;;;;;;;;2132138;27;20171;-42
2022/09/22 04:40:45;;;;;;;;;;;;;;;;;;2131932;27;20369;-42
2022/09/22 04:41:45;;;;;;;;;;;;;;;;;;2131855;27;20056;-42
2022/09/22 04:42:46;;;;;;;;;;;;;;;;;;2131926;27;20013;-42
2022/09/22 04:43:47;;;;;;;;;;;;;;;;;;2131890;27;19969;-42
2022/09/22 04:44:48;;;;;;;;;;;;;;;;;;2131942;27;19930;-42
2022/09/22 04:45:49;;;;;;;;;;;;;;;;;;2132079;27;19927;-42
2022/09/22 04:46:50;;;;;;;;;;;;;;;;;;2131907;27;19965;-42
2022/09/22 04:47:50;;;;;;;;;;;;;;;;;;2132043;27;19930;-42
2022/09/22 04:48:51;;;;;;;;;;;;;;;;;;2131917;27;19967;-42
2022/09/22 04:49:52;;;;;;;;;;;;;;;;;;2131921;27;19967;-42
2022/09/22 04:50:53;;;;;;;;;;;;;;;;;;2132001;27;20300;-47
2022/09/22 04:51:54;;;;;;;;;;;;;;;;;;2131956;27;20412;-46
2022/09/22 04:52:55;;;;;;;;;;;;;;;;;;2128974;27;20392;-48
2022/09/22 04:53:55;;;;;;;;;;;;;;;;;;2123718;27;19980;-47
2022/09/22 04:54:56;;;;;;;;;;;;;;;;;;2131971;27;19939;-46
2022/09/22 04:55:57;;;;;;;;;;;;;;;;;;2131827;27;19934;-46
2022/09/22 04:56:58;;;;;;;;;;;;;;;;;;2131829;27;20010;-47
2022/09/22 04:57:59;;;;;;;;;;;;;;;;;;2132145;27;19960;-42
2022/09/22 04:59:00;;;;;;;;;;;;;;;;;;2131746;27;19969;-42
2022/09/22 05:00:01;;;;;;;;;;;;;;;;;;2131873;27;20444;-42
2022/09/22 05:01:02;;;;;;;;;;;;;;;;;;2131954;27;19971;-42
2022/09/22 05:02:03;;;;;;;;;;;;;;;;;;2131951;27;19923;-42
2022/09/22 05:03:04;;;;;;;;;;;;;;;;;;2132033;27;20014;-42
2022/09/22 05:04:05;;;;;;;;;;;;;;;;;;2131790;27;19923;-42
2022/09/22 05:05:06;;;;;;;;;;;;;;;;;;2131878;27;19923;-43
2022/09/22 05:06:06;;;;;;;;;;;;;;;;;;2131850;27;19971;-42
2022/09/22 05:07:08;;;;;;;;;;;;;;;;;;2131699;27;19930;-42
2022/09/22 05:08:09;;;;;;;;;;;;;;;;;;2131859;27;19972;-42
2022/09/22 05:09:10;;;;;;;;;;;;;;;;;;2131999;27;19923;-46
2022/09/22 05:10:12;;;;;;;;;;;;;;;;;;2131866;27;20014;-42
2022/09/22 05:11:13;;;;;;;;;;;;;;;;;;2130036;27;19930;-42
2022/09/22 05:12:14;;;;;;;;;;;;;;;;;;2123248;27;19946;-42
2022/09/22 05:13:15;;;;;;;;;;;;;;;;;;2123117;28;20348;-42
2022/09/22 05:14:16;;;;;;;;;;;;;;;;;;2123198;28;19930;-42
2022/09/22 05:15:17;;;;;;;;;;;;;;;;;;2123201;28;20261;-42
2022/09/22 05:16:18;;;;;;;;;;;;;;;;;;2123079;27;19931;-42
2022/09/22 05:17:19;;;;;;;;;;;;;;;;;;2123184;28;19930;-42
2022/09/22 05:18:20;;;;;;;;;;;;;;;;;;2123755;28;19923;-42
2022/09/22 05:19:21;;;;;;;;;;;;;;;;;;2123317;28;19975;-42
2022/09/22 05:20:22;;;;;;;;;;;;;;;;;;2123348;28;20333;-46
2022/09/22 05:21:23;;;;;;;;;;;;;;;;;;2123079;27;19953;-46
2022/09/22 05:22:24;;;;;;;;;;;;;;;;;;2123105;28;19930;-47
2022/09/22 05:23:25;;;;;;;;;;;;;;;;;;2123995;28;20031;-45
2022/09/22 05:24:26;;;;;;;;;;;;;;;;;;2123107;28;19946;-46
2022/09/22 05:25:27;;;;;;;;;;;;;;;;;;2123149;28;20011;-45
2022/09/22 05:26:29;;;;;;;;;;;;;;;;;;2123047;27;20295;-46
2022/09/22 05:27:30;;;;;;;;;;;;;;;;;;2123265;28;19923;-46
2022/09/22 05:28:31;;;;;;;;;;;;;;;;;;2123139;28;20023;-46
2022/09/22 05:29:32;;;;;;;;;;;;;;;;;;2123453;28;19963;-46
2022/09/22 05:30:33;;;;;;;;;;;;;;;;;;2123284;28;20428;-42
2022/09/22 05:31:33;;;;;;;;;;;;;;;;;;2123190;27;20016;-42
2022/09/22 05:32:34;;;;;;;;;;;;;;;;;;2123127;28;20012;-42
2022/09/22 05:33:35;;;;;;;;;;;;;;;;;;2123049;28;19924;-42
2022/09/22 05:34:36;;;;;;;;;;;;;;;;;;2123094;28;19961;-42
2022/09/22 05:35:37;;;;;;;;;;;;;;;;;;2123108;28;20392;-42
2022/09/22 05:36:38;;;;;;;;;;;;;;;;;;2123106;27;19928;-42
2022/09/22 05:37:39;;;;;;;;;;;;;;;;;;2123075;28;19973;-42
2022/09/22 05:38:39;;;;;;;;;;;;;;;;;;2123249;28;20409;-42
2022/09/22 05:39:40;;;;;;;;;;;;;;;;;;2123242;28;19930;-42
2022/09/22 05:40:41;;;;;;;;;;;;;;;;;;2123180;27;19927;-42
2022/09/22 05:41:42;;;;;;;;;;;;;;;;;;2124512;27;19924;-42
2022/09/22 05:42:43;;;;;;;;;;;;;;;;;;2124774;28;20478;-42
2022/09/22 05:43:44;;;;;;;;;;;;;;;;;;2124504;28;20330;-42
2022/09/22 05:44:44;;;;;;;;;;;;;;;;;;2124453;28;19924;-42
2022/09/22 05:45:45;;;;;;;;;;;;;;;;;;2124567;28;19933;-42
2022/09/22 05:46:46;;;;;;;;;;;;;;;;;;2124614;27;19930;-42
2022/09/22 05:47:47;;;;;;;;;;;;;;;;;;2124695;28;20502;-42
2022/09/22 05:48:48;;;;;;;;;;;;;;;;;;2124695;28;19923;-47
2022/09/22 05:49:49;;;;;;;;;;;;;;;;;;2124534;27;19947;-48
2022/09/22 05:50:50;;;;;;;;;;;;;;;;;;2130264;27;19923;-49
2022/09/22 05:51:54;;;;;;;;;;;;;;;;;;2133138;27;19934;-46
2022/09/22 05:52:55;;;;;;;;;;;;;;;;;;2133205;27;19930;-45
2022/09/22 05:53:55;;;;;;;;;;;;;;;;;;2133206;27;20374;-46
2022/09/22 05:54:56;;;;;;;;;;;;;;;;;;2133173;27;20049;-45
2022/09/22 05:55:58;;;;;;;;;;;;;;;;;;2133009;27;19975;-45
2022/09/22 05:57:00;;;;;;;;;;;;;;;;;;2133439;27;19930;-46
2022/09/22 05:58:01;;;;;;;;;;;;;;;;;;2133241;27;19930;-42
2022/09/22 05:59:02;;;;;;;;;;;;;;;;;;2133005;27;19927;-42
2022/09/22 06:00:03;;;;;;;;;;;;;;;;;;2132999;27;19923;-42
2022/09/22 06:01:04;;;;;;;;;;;;;;;;;;2133099;27;19923;-42
2022/09/22 06:02:07;;;;;;;;;;;;;;;;;;2133015;27;19923;-43
2022/09/22 06:03:25;;;;;;;;;;;;;;;;;;2133165;27;20059;-42
2022/09/22 06:04:26;;;;;;;;;;;;;;;;;;2132897;27;20029;-42
2022/09/22 06:05:27;;;;;;;;;;;;;;;;;;2133359;27;19930;-45
2022/09/22 06:06:27;;;;;;;;;;;;;;;;;;2132994;27;19944;-46
2022/09/22 06:07:28;;;;;;;;;;;;;;;;;;2132928;27;19962;-46
2022/09/22 06:08:29;;;;;;;;;;;;;;;;;;2133072;27;19923;-47
2022/09/22 06:09:32;;;;;;;;;;;;;;;;;;2132937;27;19927;-46
2022/09/22 06:10:33;;;;;;;;;;;;;;;;;;2133134;27;19930;-45
2022/09/22 06:11:34;;;;;;;;;;;;;;;;;;2128116;27;19923;-45
2022/09/22 06:12:34;;;;;;;;;;;;;;;;;;2124500;28;20343;-47
2022/09/22 06:13:35;;;;;;;;;;;;;;;;;;2124290;28;19969;-46
2022/09/22 06:14:36;;;;;;;;;;;;;;;;;;2124381;28;19924;-46
2022/09/22 06:15:37;;;;;;;;;;;;;;;;;;2124324;28;19923;-46
2022/09/22 06:16:37;;;;;;;;;;;;;;;;;;2124379;27;19977;-47
2022/09/22 06:17:39;;;;;;;;;;;;;;;;;;2124443;28;19961;-46
2022/09/22 06:18:40;;;;;;;;;;;;;;;;;;2124474;28;19976;-46
2022/09/22 06:19:42;;;;;;;;;;;;;;;;;;2124295;28;19924;-45
2022/09/22 06:20:43;;;;;;;;;;;;;;;;;;2124311;28;19923;-46
2022/09/22 06:21:44;;;;;;;;;;;;;;;;;;2124274;27;20254;-46
2022/09/22 06:22:45;;;;;;;;;;;;;;;;;;2124280;28;19931;-46
2022/09/22 06:23:46;;;;;;;;;;;;;;;;;;2124503;28;19923;-46
2022/09/22 06:24:47;;;;;;;;;;;;;;;;;;2124561;28;19924;-45
2022/09/22 06:25:48;;;;;;;;;;;;;;;;;;2124331;28;20295;-45
2022/09/22 06:26:49;;;;;;;;;;;;;;;;;;2124371;27;19923;-45
2022/09/22 06:27:50;;;;;;;;;;;;;;;;;;2124221;28;20014;-47
2022/09/22 06:28:51;;;;;;;;;;;;;;;;;;2124442;28;19927;-45
2022/09/22 06:29:51;;;;;;;;;;;;;;;;;;2124424;28;19972;-46
2022/09/22 06:30:52;;;;;;;;;;;;;;;;;;2124382;28;19930;-46
2022/09/22 06:31:53;;;;;;;;;;;;;;;;;;2124133;27;19930;-46
2022/09/22 06:32:54;;;;;;;;;;;;;;;;;;2124440;28;20411;-45
2022/09/22 06:33:55;;;;;;;;;;;;;;;;;;2124441;28;19966;-42
2022/09/22 06:35:00;;;;;;;;;;;;;;;;;;2124332;28;20403;-42
2022/09/22 06:36:01;;;;;;;;;;;;;;;;;;2124483;28;19923;-42
2022/09/22 06:37:01;;;;;;;;;;;;;;;;;;2124251;27;19927;-42
2022/09/22 06:38:02;;;;;;;;;;;;;;;;;;2124349;28;19952;-47
2022/09/22 06:39:04;;;;;;;;;;;;;;;;;;2124171;28;19923;-45
2022/09/22 06:40:05;;;;;;;;;;;;;;;;;;2124224;28;20283;-45
2022/09/22 06:41:07;;;;;;;;;;;;;;;;;;2124101;28;20003;-45
2022/09/22 06:42:09;;;;;;;;;;;;;;;;;;2124185;27;20210;-45
2022/09/22 06:43:11;;;;;;;;;;;;;;;;;;2124131;28;19924;-46
2022/09/22 06:44:14;;;;;;;;;;;;;;;;;;2124120;28;20014;-42
2022/09/22 06:45:14;;;;;;;;;;;;;;;;;;2124178;27;20377;-42
2022/09/22 06:46:17;;;;;;;;;;;;;;;;;;2124108;28;19924;-42
2022/09/22 06:47:18;;;;;;;;;;;;;;;;;;2131942;27;19924;-42
2022/09/22 06:48:21;;;;;;;;;;;;;;;;;;2132801;27;19923;-42
2022/09/22 06:49:22;;;;;;;;;;;;;;;;;;2132946;27;19927;-45
2022/09/22 06:50:22;;;;;;;;;;;;;;;;;;2132696;27;19974;-45
2022/09/22 06:51:25;;;;;;;;;;;;;;;;;;2132713;27;19970;-42
2022/09/22 06:52:26;;;;;;;;;;;;;;;;;;2132428;27;20276;-43
2022/09/22 06:53:27;;;;;;;;;;;;;;;;;;2131891;27;20311;-42
2022/09/22 06:54:28;;;;;;;;;;;;;;;;;;2132619;27;19976;-42
2022/09/22 06:55:29;;;;;;;;;;;;;;;;;;2132635;27;19972;-42
2022/09/22 06:56:29;;;;;;;;;;;;;;;;;;2132698;27;19923;-42
2022/09/22 06:57:32;;;;;;;;;;;;;;;;;;2132626;27;20399;-43